createdAt,value
2019-03-18T00:00:32.851Z,8.17
2019-03-18T00:03:21.165Z,8.67
2019-03-18T00:06:02.208Z,6.73
2019-03-18T00:08:43.525Z,5.63
2019-03-18T00:11:24.067Z,6.37
2019-03-18T00:14:05.411Z,11.73
2019-03-18T00:16:46.729Z,6.80
2019-03-18T00:19:28.042Z,7.30
2019-03-18T00:22:08.671Z,7.83
2019-03-18T00:24:49.352Z,6.47
2019-03-18T00:27:18.164Z,7.87
2019-03-18T00:29:47.037Z,7.63
2019-03-18T00:32:15.935Z,8.00
2019-03-18T00:34:44.721Z,6.83
2019-03-18T00:37:13.549Z,8.07
2019-03-18T00:39:42.417Z,6.37
2019-03-18T00:42:11.289Z,7.87
2019-03-18T00:44:40.077Z,9.63
2019-03-18T00:47:08.918Z,9.00
2019-03-18T00:49:37.727Z,7.50
2019-03-18T00:52:06.543Z,10.80
2019-03-18T00:54:35.471Z,23.33
2019-03-18T00:57:04.348Z,12.80
2019-03-18T00:59:33.229Z,18.00
2019-03-18T01:02:02.056Z,24.33
2019-03-18T01:04:30.900Z,8.93
2019-03-18T01:06:59.736Z,8.37
2019-03-18T01:09:28.756Z,23.23
2019-03-18T01:11:57.564Z,18.23
2019-03-18T01:14:26.397Z,10.67
2019-03-18T01:16:55.222Z,10.90
2019-03-18T01:19:24.183Z,6.57
2019-03-18T01:21:53.001Z,6.67
2019-03-18T01:24:21.805Z,6.73
2019-03-18T01:26:50.763Z,6.23
2019-03-18T01:29:19.643Z,6.20
2019-03-18T01:31:48.608Z,9.53
2019-03-18T01:34:17.528Z,7.30
2019-03-18T01:36:46.432Z,7.00
2019-03-18T01:39:15.213Z,7.33
2019-03-18T01:41:44.044Z,9.20
2019-03-18T01:44:12.869Z,6.67
2019-03-18T01:46:41.657Z,6.63
2019-03-18T01:49:10.514Z,7.80
2019-03-18T01:51:39.325Z,7.63
2019-03-18T01:54:08.178Z,6.53
2019-03-18T01:56:36.969Z,7.67
2019-03-18T01:59:05.854Z,7.13
2019-03-18T02:01:34.670Z,11.30
2019-03-18T02:04:03.601Z,6.97
2019-03-18T02:06:32.491Z,7.27
2019-03-18T02:09:01.366Z,11.07
2019-03-18T02:11:30.171Z,4.37
2019-03-18T02:13:58.951Z,5.07
2019-03-18T02:16:27.834Z,5.73
2019-03-18T02:18:56.724Z,3.73
2019-03-18T02:21:25.506Z,4.10
2019-03-18T02:23:54.308Z,3.60
2019-03-18T02:26:23.191Z,4.17
2019-03-18T02:28:52.132Z,4.47
2019-03-18T02:31:21.009Z,4.27
2019-03-18T02:33:50.121Z,4.13
2019-03-18T02:36:18.921Z,4.60
2019-03-18T02:38:47.801Z,3.87
2019-03-18T02:41:16.698Z,4.40
2019-03-18T02:43:45.553Z,3.13
2019-03-18T02:46:14.321Z,5.70
2019-03-18T02:48:43.128Z,4.73
2019-03-18T02:51:11.917Z,4.40
2019-03-18T02:53:40.731Z,4.47
2019-03-18T02:56:09.701Z,4.57
2019-03-18T02:58:38.475Z,5.60
2019-03-18T03:01:07.260Z,5.23
2019-03-18T03:03:37.172Z,4.07
2019-03-18T03:06:06.333Z,4.97
2019-03-18T03:08:35.284Z,5.37
2019-03-18T03:11:04.294Z,3.90
2019-03-18T03:13:33.384Z,4.90
2019-03-18T03:16:02.329Z,5.03
2019-03-18T03:18:31.291Z,4.20
2019-03-18T03:21:00.147Z,4.57
2019-03-18T03:23:28.965Z,5.87
2019-03-18T03:25:57.854Z,7.97
2019-03-18T03:28:26.836Z,5.33
2019-03-18T03:30:55.931Z,4.07
2019-03-18T03:33:25.009Z,6.30
2019-03-18T03:35:53.868Z,4.33
2019-03-18T03:38:22.676Z,4.87
2019-03-18T03:40:51.528Z,5.10
2019-03-18T03:43:20.435Z,4.00
2019-03-18T03:45:49.222Z,5.00
2019-03-18T03:48:17.997Z,6.70
2019-03-18T03:50:47.107Z,4.13
2019-03-18T03:53:15.913Z,4.10
2019-03-18T03:55:44.802Z,4.30
2019-03-18T03:58:13.922Z,4.10
2019-03-18T04:00:42.978Z,6.80
2019-03-18T04:03:11.916Z,5.90
2019-03-18T04:05:40.787Z,4.30
2019-03-18T04:08:09.764Z,4.93
2019-03-18T04:10:38.605Z,6.87
2019-03-18T04:13:07.486Z,4.33
2019-03-18T04:15:36.524Z,4.57
2019-03-18T04:18:05.500Z,6.23
2019-03-18T04:20:34.317Z,4.90
2019-03-18T04:23:03.154Z,7.57
2019-03-18T04:25:32.014Z,9.07
2019-03-18T04:28:00.808Z,4.60
2019-03-18T04:30:29.612Z,5.53
2019-03-18T04:32:58.551Z,6.60
2019-03-18T04:35:27.420Z,5.80
2019-03-18T04:37:56.206Z,3.83
2019-03-18T04:40:25.033Z,5.97
2019-03-18T04:42:53.909Z,4.10
2019-03-18T04:45:22.780Z,4.07
2019-03-18T04:47:51.615Z,4.00
2019-03-18T04:50:20.423Z,4.67
2019-03-18T04:52:49.212Z,6.30
2019-03-18T04:55:18.035Z,6.57
2019-03-18T04:57:46.848Z,5.20
2019-03-18T05:00:15.769Z,4.50
2019-03-18T05:02:44.640Z,4.27
2019-03-18T05:05:13.625Z,6.03
2019-03-18T05:07:42.436Z,6.73
2019-03-18T05:10:11.441Z,5.50
2019-03-18T05:12:40.415Z,4.00
2019-03-18T05:15:09.509Z,4.77
2019-03-18T05:17:38.381Z,5.60
2019-03-18T05:20:07.691Z,5.93
2019-03-18T05:22:36.466Z,5.50
2019-03-18T05:25:05.450Z,5.67
2019-03-18T05:27:34.478Z,5.83
2019-03-18T05:30:03.532Z,9.03
2019-03-18T05:32:32.500Z,10.27
2019-03-18T05:35:01.395Z,9.63
2019-03-18T05:37:30.348Z,7.23
2019-03-18T05:39:59.297Z,10.23
2019-03-18T05:42:28.225Z,7.70
2019-03-18T05:44:57.101Z,7.10
2019-03-18T05:47:38.267Z,5.47
2019-03-18T05:49:56.447Z,9.73
2019-03-18T05:52:25.330Z,4.40
2019-03-18T05:54:54.122Z,4.37
2019-03-18T05:57:25.836Z,5.90
2019-03-18T05:59:53.520Z,5.93
2019-03-18T06:02:22.372Z,5.90
2019-03-18T06:04:51.266Z,4.43
2019-03-18T06:07:20.036Z,7.10
2019-03-18T06:09:48.924Z,4.97
2019-03-18T06:12:17.796Z,3.70
2019-03-18T06:14:46.673Z,7.03
2019-03-18T06:17:15.513Z,5.43
2019-03-18T06:19:44.375Z,5.43
2019-03-18T06:22:13.233Z,3.50
2019-03-18T06:24:42.109Z,4.60
2019-03-18T06:27:10.928Z,6.90
2019-03-18T06:29:39.750Z,4.67
2019-03-18T06:32:08.660Z,8.33
2019-03-18T06:34:37.744Z,8.27
2019-03-18T06:37:06.648Z,19.03
2019-03-18T06:39:35.548Z,7.17
2019-03-18T06:42:04.498Z,5.03
2019-03-18T06:44:33.354Z,5.17
2019-03-18T06:47:02.246Z,7.80
2019-03-18T06:49:31.052Z,7.27
2019-03-18T06:51:59.971Z,7.40
2019-03-18T06:54:29.265Z,4.93
2019-03-18T06:56:58.085Z,6.85
2019-03-18T06:59:26.942Z,5.37
2019-03-18T07:01:55.784Z,6.60
2019-03-18T07:04:24.634Z,6.50
2019-03-18T07:06:53.578Z,7.77
2019-03-18T07:09:22.448Z,8.13
2019-03-18T07:11:51.280Z,25.37
2019-03-18T07:14:20.203Z,14.63
2019-03-18T07:16:49.015Z,8.20
2019-03-18T07:19:17.798Z,9.20
2019-03-18T07:21:46.601Z,6.40
2019-03-18T07:24:15.417Z,7.47
2019-03-18T07:26:44.285Z,6.77
2019-03-18T07:29:13.170Z,6.30
2019-03-18T07:31:41.977Z,8.80
2019-03-18T07:34:10.897Z,7.87
2019-03-18T07:36:39.763Z,5.47
2019-03-18T07:39:08.713Z,4.23
2019-03-18T07:41:37.525Z,8.33
2019-03-18T07:44:06.362Z,6.00
2019-03-18T07:46:35.173Z,8.63
2019-03-18T07:49:03.978Z,6.33
2019-03-18T07:51:32.851Z,9.17
2019-03-18T07:54:01.622Z,4.80
2019-03-18T07:56:30.446Z,7.47
2019-03-18T07:58:59.260Z,6.07
2019-03-18T08:01:28.068Z,6.03
2019-03-18T08:03:56.977Z,5.57
2019-03-18T08:06:25.791Z,5.87
2019-03-18T08:08:54.593Z,4.90
2019-03-18T08:11:23.473Z,10.80
2019-03-18T08:13:52.307Z,4.67
2019-03-18T08:16:21.099Z,5.00
2019-03-18T08:18:49.974Z,8.95
2019-03-18T08:21:18.852Z,5.83
2019-03-18T08:23:47.726Z,4.87
2019-03-18T08:26:16.511Z,5.53
2019-03-18T08:28:45.354Z,3.60
2019-03-18T08:31:14.204Z,5.70
2019-03-18T08:33:42.976Z,6.77
2019-03-18T08:36:11.818Z,6.33
2019-03-18T08:38:40.592Z,7.83
2019-03-18T08:41:09.361Z,5.20
2019-03-18T08:43:38.163Z,3.20
2019-03-18T08:46:06.944Z,8.60
2019-03-18T08:48:35.793Z,6.40
2019-03-18T08:51:04.745Z,5.63
2019-03-18T08:53:33.549Z,5.77
2019-03-18T08:56:02.468Z,5.50
2019-03-18T08:58:31.386Z,4.67
2019-03-18T09:01:00.259Z,6.00
2019-03-18T09:03:29.061Z,4.70
2019-03-18T09:05:57.897Z,4.90
2019-03-18T09:08:26.740Z,4.23
2019-03-18T09:10:55.783Z,4.67
2019-03-18T09:13:24.634Z,5.87
2019-03-18T09:15:53.452Z,9.30
2019-03-18T09:18:22.321Z,6.60
2019-03-18T09:20:51.184Z,5.40
2019-03-18T09:23:20.044Z,4.70
2019-03-18T09:25:48.861Z,5.70
2019-03-18T09:28:17.694Z,15.43
2019-03-18T09:30:46.573Z,4.90
2019-03-18T09:33:15.409Z,6.30
2019-03-18T09:35:44.323Z,8.97
2019-03-18T09:38:13.125Z,6.50
2019-03-18T09:40:41.934Z,6.17
2019-03-18T09:43:10.768Z,5.13
2019-03-18T09:45:39.601Z,8.17
2019-03-18T09:48:08.116Z,5.83
2019-03-18T09:50:36.989Z,6.60
2019-03-18T09:53:05.878Z,10.77
2019-03-18T09:55:34.770Z,4.13
2019-03-18T09:58:03.671Z,9.20
2019-03-18T10:00:32.450Z,6.43
2019-03-18T10:03:01.284Z,4.73
2019-03-18T10:05:33.007Z,8.37
2019-03-18T10:08:01.829Z,6.30
2019-03-18T10:10:30.662Z,8.60
2019-03-18T10:12:59.437Z,4.73
2019-03-18T10:15:28.301Z,7.53
2019-03-18T10:17:57.214Z,3.23
2019-03-18T10:20:26.047Z,6.45
2019-03-18T10:22:54.852Z,8.93
2019-03-18T10:25:23.708Z,8.40
2019-03-18T10:27:52.494Z,5.13
2019-03-18T10:30:21.376Z,6.00
2019-03-18T10:32:50.289Z,7.50
2019-03-18T10:35:19.324Z,6.70
2019-03-18T10:37:48.157Z,7.53
2019-03-18T10:40:16.953Z,7.10
2019-03-18T10:42:45.789Z,13.23
2019-03-18T10:45:14.724Z,7.90
2019-03-18T10:47:43.702Z,18.02
2019-03-18T10:50:12.714Z,8.27
2019-03-18T10:52:41.682Z,9.40
2019-03-18T10:55:11.425Z,14.03
2019-03-18T10:57:40.324Z,12.40
2019-03-18T11:00:10.845Z,16.67
2019-03-18T11:02:39.944Z,16.27
2019-03-18T11:05:09.299Z,13.50
2019-03-18T11:07:41.023Z,21.07
2019-03-18T11:10:12.585Z,14.87
2019-03-18T11:12:40.960Z,9.93
2019-03-18T11:15:11.143Z,27.23
2019-03-18T11:17:39.944Z,8.57
2019-03-18T11:20:10.048Z,5.37
2019-03-18T11:22:39.026Z,13.17
2019-03-18T11:25:08.220Z,8.93
2019-03-18T11:27:37.021Z,14.50
2019-03-18T11:30:06.362Z,20.63
2019-03-18T11:32:35.156Z,11.33
2019-03-18T11:35:04.364Z,11.43
2019-03-18T11:37:33.173Z,15.90
2019-03-18T11:40:02.145Z,8.13
2019-03-18T11:42:30.965Z,8.33
2019-03-18T11:44:59.815Z,6.43
2019-03-18T11:47:28.646Z,12.37
2019-03-18T11:50:06.147Z,6.77
2019-03-18T11:52:27.976Z,17.70
2019-03-18T11:54:56.897Z,8.17
2019-03-18T11:57:25.742Z,9.90
2019-03-18T11:59:54.565Z,12.50
2019-03-18T12:02:27.867Z,9.20
2019-03-18T12:04:53.877Z,9.60
2019-03-18T12:07:22.704Z,7.70
2019-03-18T12:09:51.504Z,9.97
2019-03-18T12:12:20.379Z,7.27
2019-03-18T12:14:49.209Z,12.27
2019-03-18T12:17:18.039Z,7.33
2019-03-18T12:19:46.837Z,13.20
2019-03-18T12:22:15.638Z,10.10
2019-03-18T12:24:44.455Z,10.83
2019-03-18T12:27:13.328Z,8.17
2019-03-18T12:29:42.126Z,8.10
2019-03-18T12:32:10.970Z,9.93
2019-03-18T12:34:39.790Z,10.63
2019-03-18T12:37:08.788Z,10.37
2019-03-18T12:39:37.610Z,7.20
2019-03-18T12:42:06.543Z,10.83
2019-03-18T12:44:35.356Z,11.33
2019-03-18T12:47:04.229Z,12.97
2019-03-18T12:49:33.025Z,17.15
2019-03-18T12:52:01.846Z,16.93
2019-03-18T12:54:30.637Z,9.10
2019-03-18T12:56:59.474Z,12.73
2019-03-18T12:59:28.339Z,27.83
2019-03-18T13:01:57.226Z,11.53
2019-03-18T13:04:26.207Z,10.00
2019-03-18T13:06:55.176Z,16.13
2019-03-18T13:09:24.071Z,63.77
2019-03-18T13:11:52.584Z,21.57
2019-03-18T13:14:20.946Z,9.60
2019-03-18T13:16:49.823Z,6.83
2019-03-18T13:19:18.996Z,22.00
2019-03-18T13:21:47.673Z,7.43
2019-03-18T13:24:16.501Z,14.47
2019-03-18T13:26:45.997Z,23.17
2019-03-18T13:29:14.925Z,13.97
2019-03-18T13:31:43.993Z,11.03
2019-03-18T13:34:12.863Z,10.10
2019-03-18T13:36:41.956Z,8.70
2019-03-18T13:39:10.922Z,8.30
2019-03-18T13:41:39.788Z,5.23
2019-03-18T13:44:11.137Z,9.90
2019-03-18T13:46:40.018Z,4.23
2019-03-18T13:49:09.111Z,9.90
2019-03-18T13:51:38.113Z,7.77
2019-03-18T13:54:06.897Z,13.70
2019-03-18T13:56:35.341Z,17.97
2019-03-18T13:59:03.742Z,6.87
2019-03-18T14:01:32.094Z,4.43
2019-03-18T14:04:00.465Z,6.27
2019-03-18T14:06:29.397Z,7.83
2019-03-18T14:08:58.446Z,10.97
2019-03-18T14:11:27.289Z,10.43
2019-03-18T14:13:56.201Z,7.33
2019-03-18T14:16:25.280Z,8.47
2019-03-18T14:18:54.740Z,6.20
2019-03-18T14:21:32.796Z,6.07
2019-03-18T14:23:54.886Z,10.37
2019-03-18T14:26:23.733Z,5.90
2019-03-18T14:28:55.908Z,5.50
2019-03-18T14:31:24.774Z,13.27
2019-03-18T14:33:53.554Z,7.90
2019-03-18T14:36:22.369Z,4.13
2019-03-18T14:38:51.191Z,9.07
2019-03-18T14:41:20.004Z,8.08
2019-03-18T14:43:48.817Z,11.40
2019-03-18T14:46:17.653Z,6.23
2019-03-18T14:48:46.431Z,4.57
2019-03-18T14:51:15.386Z,6.77
2019-03-18T14:53:43.852Z,8.83
2019-03-18T14:56:12.837Z,5.10
2019-03-18T14:58:41.648Z,6.77
2019-03-18T15:01:10.445Z,7.53
2019-03-18T15:03:39.236Z,8.93
2019-03-18T15:06:08.060Z,5.87
2019-03-18T15:08:36.902Z,8.63
2019-03-18T15:11:05.706Z,7.17
2019-03-18T15:13:34.602Z,8.90
2019-03-18T15:16:03.403Z,6.80
2019-03-18T15:18:32.250Z,12.23
2019-03-18T15:21:01.052Z,8.07
2019-03-18T15:23:29.851Z,6.17
2019-03-18T15:26:00.021Z,5.23
2019-03-18T15:28:28.849Z,10.90
2019-03-18T15:30:57.737Z,9.60
2019-03-18T15:33:26.593Z,8.80
2019-03-18T15:35:55.482Z,9.17
2019-03-18T15:38:24.287Z,7.03
2019-03-18T15:40:53.178Z,14.53
2019-03-18T15:43:22.070Z,9.90
2019-03-18T15:45:50.876Z,9.80
2019-03-18T15:48:19.670Z,9.40
2019-03-18T15:50:48.580Z,8.20
2019-03-18T15:53:17.385Z,12.43
2019-03-18T15:55:46.313Z,5.67
2019-03-18T15:58:15.128Z,7.77
2019-03-18T16:00:44.023Z,14.70
2019-03-18T16:03:12.910Z,7.30
2019-03-18T16:05:41.700Z,7.60
2019-03-18T16:08:10.499Z,9.30
2019-03-18T16:10:39.357Z,6.40
2019-03-18T16:13:08.273Z,5.57
2019-03-18T16:15:37.099Z,10.73
2019-03-18T16:18:06.043Z,3.93
2019-03-18T16:20:35.068Z,7.83
2019-03-18T16:23:04.060Z,6.17
2019-03-18T16:25:32.914Z,11.63
2019-03-18T16:28:01.856Z,8.03
2019-03-18T16:30:30.836Z,8.87
2019-03-18T16:32:59.729Z,10.47
2019-03-18T16:35:28.631Z,8.33
2019-03-18T16:37:57.416Z,11.93
2019-03-18T16:40:26.375Z,5.90
2019-03-18T16:42:55.444Z,5.10
2019-03-18T16:45:24.235Z,7.60
2019-03-18T16:47:53.113Z,6.60
2019-03-18T16:50:22.014Z,5.47
2019-03-18T16:52:50.944Z,3.97
2019-03-18T16:55:19.923Z,5.93
2019-03-18T16:57:48.717Z,5.20
2019-03-18T17:00:18.570Z,3.87
2019-03-18T17:02:47.431Z,7.13
2019-03-18T17:05:16.330Z,5.23
2019-03-18T17:07:45.218Z,8.67
2019-03-18T17:10:14.118Z,9.37
2019-03-18T17:12:43.072Z,6.83
2019-03-18T17:15:12.136Z,15.33
2019-03-18T17:17:41.098Z,10.47
2019-03-18T17:20:11.312Z,10.20
2019-03-18T17:22:48.836Z,17.40
2019-03-18T17:25:12.976Z,14.73
2019-03-18T17:27:41.943Z,10.87
2019-03-18T17:30:14.437Z,15.30
2019-03-18T17:32:43.367Z,25.27
2019-03-18T17:35:12.343Z,13.10
2019-03-18T17:37:41.340Z,24.17
2019-03-18T17:40:11.081Z,18.07
2019-03-18T17:42:40.769Z,23.97
2019-03-18T17:45:10.670Z,11.13
2019-03-18T17:47:39.506Z,21.83
2019-03-18T17:50:10.490Z,27.03
2019-03-18T17:52:39.366Z,30.62
2019-03-18T17:55:11.071Z,29.80
2019-03-18T17:57:40.048Z,49.33
2019-03-18T18:00:11.326Z,26.03
2019-03-18T18:02:40.143Z,22.07
2019-03-18T18:05:09.163Z,44.67
2019-03-18T18:07:38.008Z,37.47
2019-03-18T18:10:07.363Z,36.93
2019-03-18T18:12:36.197Z,29.00
2019-03-18T18:15:06.106Z,18.80
2019-03-18T18:17:35.016Z,16.67
2019-03-18T18:20:03.946Z,13.00
2019-03-18T18:22:32.780Z,9.70
2019-03-18T18:25:01.582Z,8.97
2019-03-18T18:27:30.484Z,12.00
2019-03-18T18:29:59.365Z,10.27
2019-03-18T18:32:28.281Z,8.37
2019-03-18T18:34:57.125Z,8.83
2019-03-18T18:37:25.969Z,9.03
2019-03-18T18:39:54.874Z,6.63
2019-03-18T18:42:23.710Z,6.37
2019-03-18T18:44:52.540Z,7.00
2019-03-18T18:47:21.434Z,12.10
2019-03-18T18:49:50.458Z,6.60
2019-03-18T18:52:19.710Z,7.90
2019-03-18T18:54:48.550Z,7.07
2019-03-18T18:57:17.530Z,5.70
2019-03-18T18:59:46.395Z,9.47
2019-03-18T19:02:15.265Z,11.00
2019-03-18T19:04:44.116Z,7.23
2019-03-18T19:07:12.988Z,5.37
2019-03-18T19:09:41.869Z,10.03
2019-03-18T19:12:10.675Z,11.13
2019-03-18T19:14:39.505Z,8.93
2019-03-18T19:17:08.314Z,8.73
2019-03-18T19:19:37.308Z,8.40
2019-03-18T19:22:06.171Z,10.60
2019-03-18T19:24:35.042Z,8.43
2019-03-18T19:27:03.988Z,6.83
2019-03-18T19:29:32.957Z,8.53
2019-03-18T19:32:01.760Z,8.13
2019-03-18T19:34:30.824Z,11.20
2019-03-18T19:37:00.566Z,14.70
2019-03-18T19:39:29.487Z,8.60
2019-03-18T19:41:58.377Z,8.93
2019-03-18T19:44:27.185Z,12.17
2019-03-18T19:46:56.030Z,8.80
2019-03-18T19:49:24.869Z,7.10
2019-03-18T19:51:53.792Z,30.40
2019-03-18T19:54:22.775Z,13.87
2019-03-18T19:56:51.699Z,15.63
2019-03-18T19:59:22.623Z,16.43
2019-03-18T20:01:51.163Z,41.77
2019-03-18T20:04:20.324Z,16.13
2019-03-18T20:06:49.225Z,20.73
2019-03-18T20:09:18.245Z,9.10
2019-03-18T20:11:47.281Z,8.07
2019-03-18T20:14:16.149Z,13.97
2019-03-18T20:16:45.010Z,8.57
2019-03-18T20:19:16.606Z,8.57
2019-03-18T20:21:45.700Z,9.67
2019-03-18T20:24:14.661Z,9.03
2019-03-18T20:26:43.502Z,11.60
2019-03-18T20:29:12.304Z,8.40
2019-03-18T20:31:41.418Z,10.37
2019-03-18T20:34:10.358Z,11.40
2019-03-18T20:36:39.187Z,7.50
2019-03-18T20:39:08.305Z,6.90
2019-03-18T20:41:37.133Z,9.97
2019-03-18T20:44:05.957Z,10.43
2019-03-18T20:46:34.871Z,10.37
2019-03-18T20:49:03.771Z,7.87
2019-03-18T20:51:32.658Z,10.67
2019-03-18T20:54:11.560Z,10.23
2019-03-18T20:56:32.143Z,9.07
2019-03-18T20:59:00.961Z,15.93
2019-03-18T21:01:29.847Z,10.87
2019-03-18T21:03:58.721Z,9.63
2019-03-18T21:06:27.600Z,9.00
2019-03-18T21:08:56.409Z,9.97
2019-03-18T21:11:25.238Z,11.67
2019-03-18T21:13:57.313Z,8.80
2019-03-18T21:16:24.665Z,9.73
2019-03-18T21:18:53.555Z,9.83
2019-03-18T21:21:22.425Z,10.73
2019-03-18T21:23:52.940Z,8.80
2019-03-18T21:26:22.002Z,6.60
2019-03-18T21:28:50.814Z,10.00
2019-03-18T21:31:19.628Z,13.47
2019-03-18T21:33:48.488Z,9.40
2019-03-18T21:36:32.777Z,10.20
2019-03-18T21:38:47.999Z,13.17
2019-03-18T21:41:16.881Z,10.63
2019-03-18T21:43:45.701Z,12.03
2019-03-18T21:46:14.555Z,10.57
2019-03-18T21:48:43.421Z,7.20
2019-03-18T21:51:12.237Z,17.47
2019-03-18T21:53:41.046Z,25.57
2019-03-18T21:56:10.033Z,26.53
2019-03-18T21:58:38.917Z,16.93
2019-03-18T22:01:07.730Z,13.23
2019-03-18T22:03:36.527Z,12.13
2019-03-18T22:06:05.390Z,12.30
2019-03-18T22:08:34.504Z,8.83
2019-03-18T22:11:03.316Z,9.90
2019-03-18T22:13:32.136Z,9.23
2019-03-18T22:16:01.104Z,11.47
2019-03-18T22:18:29.934Z,12.80
2019-03-18T22:20:58.741Z,9.70
2019-03-18T22:23:27.605Z,11.03
2019-03-18T22:25:56.415Z,8.97
2019-03-18T22:28:25.206Z,15.17
2019-03-18T22:30:54.166Z,9.13
2019-03-18T22:33:23.030Z,12.20
2019-03-18T22:35:51.813Z,13.57
2019-03-18T22:38:20.638Z,10.70
2019-03-18T22:40:49.430Z,8.17
2019-03-18T22:43:18.249Z,11.83
2019-03-18T22:45:47.134Z,8.70
2019-03-18T22:48:15.944Z,7.70
2019-03-18T22:50:44.826Z,12.17
2019-03-18T22:53:13.694Z,12.57
2019-03-18T22:55:42.526Z,15.57
2019-03-18T22:58:11.349Z,11.90
2019-03-18T23:00:50.691Z,13.77
2019-03-18T23:03:19.717Z,52.00
2019-03-18T23:05:48.508Z,33.93
2019-03-18T23:08:17.314Z,33.70
2019-03-18T23:10:46.196Z,41.30
2019-03-18T23:13:15.030Z,42.17
2019-03-18T23:15:43.893Z,27.57
2019-03-18T23:18:12.829Z,14.80
2019-03-18T23:20:41.709Z,22.73
2019-03-18T23:23:10.516Z,20.23
2019-03-18T23:25:39.326Z,13.00
2019-03-18T23:28:08.268Z,10.20
2019-03-18T23:30:37.141Z,11.53
2019-03-18T23:33:05.928Z,11.80
2019-03-18T23:35:34.836Z,9.30
2019-03-18T23:38:03.750Z,10.53
2019-03-18T23:40:32.650Z,9.67
2019-03-18T23:43:01.510Z,19.20
2019-03-18T23:45:30.460Z,8.70
2019-03-18T23:47:59.254Z,13.87
2019-03-18T23:50:28.217Z,10.90
2019-03-18T23:52:57.275Z,13.20
2019-03-18T23:55:26.093Z,14.27
2019-03-18T23:57:55.121Z,15.50
